Tiempo atmosférico en la estación meteorológica de Sigüenza, Guadalajara (1044 m.)



Fecha
DESCASC
Temp. máxima en grados centígrados (hora)
DESCASC
Temp. mínima en grados centígrados (hora)
DESCASC
Temp. media en grados centígrados
DESCASC
Racha de viento máxima en m/sg (hora)
DESCASC
Velocidad máxima media en intervalos de 10 minutos(hora)
DESCASC
Precipitaciones diarias en mm
DESCASC
Precipitaciones de 00:00 a 06:00 en mm
DESCASC
Precipitaciones de 06:00 a 12:00 en mm
DESCASC
Precipitaciones de 12:00 a 18:00 en mm
DESCASC
Precipitaciones de 18:00 a 24:00 en mm
DESCASC
16-01-2020 10.7 (15:40) 1.6 (20:50) 6.1 10.28 (16:40) 6.39 (16:20) 0 0 0 0 0
15-01-2020 7.9 (13:30) -1.7 (00:00) 3.1 8.89 (12:30) 5.83 (14:10) 0 0 0 0 0
14-01-2020 7.6 (15:00) -8.4 (06:40) -0.4 8.89 (15:20) 5 (15:20) 0 0 0 0 0
13-01-2020 8.5 (14:40) -8.4 (08:40) 0.1 7.22 (13:50) 4.17 (12:50) 0 0 0 0 0
12-01-2020 12.5 (16:10) -10.8 (-00:0) 0.8 4.72 (13:00) 3.06 (13:00) 0 0 0 0 0
11-01-2020 11.5 (16:00) -7.3 (-00:0) 2.1 4.17 (15:40) 1.67 (11:20) 0 0 0 0 0
10-01-2020 8.7 (15:30) -2 (-00:0) 3.3 10.28 (16:40) 5 (16:40) 0 0 0 0 0
09-01-2020 12.8 (15:00) -4.8 (-00:0) 4 6.39 (14:50) 3.89 (13:30) 0 0 0 0 0
08-01-2020 14.6 (16:00) -2.6 (-00:0) 6 5.56 (12:00) 2.78 (12:00) 0 0 0 0 0
07-01-2020 17.3 (15:50) -6.8 (-00:0) 5.2 5.83 (13:30) 3.06 (12:50) 0 0 0 0 0
06-01-2020 15 (14:10) -6.6 (-00:0) 4.2 5 (12:40) 3.06 (12:50) 0 0 0 0 0
05-01-2020 17.8 (15:40) -6.3 (-00:0) 5.7 3.33 (07:10) 2.5 (07:20) 0 0 0 0 0
04-01-2020 9.4 (15:50) -3.7 (-00:0) 2.8 9.17 (13:30) 5 (13:30) 0 0 0 0 0
03-01-2020 8.5 (13:40) -5.1 (-00:0) 1.7 7.5 (15:00) 4.17 (15:00) 0 0 0 0 0
02-01-2020 13.9 (15:20) -7.4 (-00:0) 3.2 4.72 (14:20) 2.5 (14:00) 0 0 0 0 0
01-01-2020 16.7 (14:50) -7.3 (-00:0) 4.7 3.61 (13:50) 2.22 (16:00) 0 0 0 0 0
31-12-2019 17.7 (14:40) -4.5 (-00:0) 6.6 4.17 (15:20) 2.5 (15:20) 0 0 0 0 0
30-12-2019 16.3 (14:50) -5.8 (-00:0) 5.2 5 (16:30) 3.06 (16:00) 0 0 0 0 0
29-12-2019 17.3 (15:20) -6.7 (-00:0) 5.3 3.89 (15:00) 2.22 (13:50) 0 0 0 0 0
28-12-2019 18.1 (15:20) -8 (-00:0) 5.1 5 (14:20) 2.22 (14:00) 0 0 0 0 0
27-12-2019 15.5 (15:20) -6.5 (-00:0) 4.5 -- (--) -- (--) -- 0 -- 0 0
26-12-2019 12.3 (14:10) -2.2 (-00:0) 5.1 9.72 (13:40) 5 (13:40) 0 0 0 0 0
25-12-2019 17.6 (15:10) -1.7 (-00:0) 8 6.11 (14:50) 3.61 (14:10) 0.2 0 0.2 0 0
24-12-2019 14.2 (13:40) -0.9 (-00:0) 6.6 4.17 (14:50) 2.22 (15:00) 0 0 0 0 0
23-12-2019 11.2 (15:40) -1.4 (-00:0) 4.9 6.39 (15:20) 3.06 (15:20) 0 0 0 0 0
22-12-2019 10.4 (17:30) 5.8 (00:00) 8.1 16.39 (00:30) 7.22 (00:10) 1 0 0.4 0.6 0
21-12-2019 14.3 (15:10) 8.2 (00:00) 11.3 20.83 (17:10) 8.89 (14:10) 7.6 0 4.4 1.2 2

Gráficas

Temp. máximas Temp. mínimas Temp. medias Precipitaciones Rachas de viento máximas Velocidades máximas media en intervalos de 10 minutos

Datos horarios

Fecha y hora oficial Temperatura (ºC) Velocidad del viento (km/h) Dirección del viento Racha (km/h) Dirección de racha Precipitación (mm) Presión (hPa) Tendencia (hPa) Humedad (%)
2020-01-19 23:00:00 -1.2 17 Nordeste 54 Nordeste 0 909.6 1 64
2020-01-19 22:00:00 -0.8 17 Nordeste 53 Nordeste 0 909.3 1.7 61
2020-01-19 21:00:00 -0.3 14 Nordeste 46 Nordeste 0 909.1 2 61
2020-01-19 20:00:00 0.2 15 Nordeste 57 Nordeste 0 908.6 1.8 58
2020-01-19 19:00:00 0.8 24 Nordeste 61 Norte 0 907.6 1.4 51
2020-01-19 18:00:00 1.6 21 Norte 55 Nordeste 0 907.1 1.4 50
2020-01-19 17:00:00 3.4 21 Norte 60 Norte 0 906.8 0.8 47
2020-01-19 16:00:00 5 26 Nordeste 64 Nordeste 0 906.2 -0.3 41
2020-01-19 15:00:00 5.4 26 Norte 60 Nordeste 0 905.7 -0.8 40
2020-01-19 14:00:00 4.5 24 Nordeste 58 Nordeste 0.2 906 0.1 46
2020-01-19 13:00:00 2.9 21 Nordeste 56 Nordeste 0 906.5 1.2 63
2020-01-19 12:00:00 3.1 16 Nordeste 52 Nordeste 0 906.5 1.9 63
2020-01-19 11:00:00 2.8 22 Nordeste -- -- -- 905.9 1.9 75
2020-01-19 10:00:00 2.5 19 Nordeste 55 Nordeste 0 905.3 1.6 82
2020-01-19 09:00:00 2.3 8 Norte 28 Norte 0.2 904.6 0.7 92
2020-01-19 08:00:00 1.8 7 Norte 28 Noroeste 1.2 904 -0.4 94
2020-01-19 07:00:00 2 8 Noroeste 21 Noroeste 0 903.7 -0.7 95
2020-01-19 06:00:00 1.7 5 Noroeste 22 Noroeste 0.6 903.9 -0.7 94
2020-01-19 05:00:00 1.7 9 Noroeste 23 Noroeste 0 904.4 -0.3 93
2020-01-19 04:00:00 1.4 10 Noroeste 22 Noroeste 0 904.4 -0.6 94
2020-01-19 03:00:00 1.6 2 Oeste 13 Noroeste 0 904.6 -0.5 93
2020-01-19 02:00:00 1.7 3 Noroeste 8 Norte 0 904.7 -0.5 96
2020-01-19 01:00:00 1.8 2 Este 10 Oeste 0 905 -0.7 94
2020-01-19 00:00:00 2.8 2 Norte 9 Sur 0 905.1 -0.6 95
2020-01-18 23:00:00 3.9 4 Sudoeste 14 Sudoeste 0.2 905.2 0.3 91
2020-01-18 22:00:00 4.7 9 Sudoeste 27 Noroeste 2.6 905.7 0 90
2020-01-18 21:00:00 6 9 Oeste 29 Sudoeste 1 905.7 0.1 95
2020-01-18 20:00:00 5.8 16 Sur 27 Sudoeste 0.4 904.9 -1.6 95
2020-01-18 19:00:00 6.1 6 Oeste 25 Sur 0.2 905.7 -1.6 96
2020-01-18 18:00:00 5.9 9 Sudoeste 28 Sudoeste 0.2 905.6 -2.7 96
2020-01-18 17:00:00 5.9 14 Sudoeste 30 Sudoeste 0 906.5 -3 95
2020-01-18 16:00:00 5.7 17 Sudoeste 33 Sudoeste 0 907.3 -3.5 93
2020-01-18 15:00:00 5.9 18 Sudoeste 35 Sudoeste 0 908.3 -4 89
2020-01-18 14:00:00 6.1 18 Sudoeste 42 Sudoeste 0 909.5 -3.6 87
2020-01-18 13:00:00 5.4 13 Sudoeste 35 Sudoeste 0.2 910.8 -2.2 89
2020-01-18 12:00:00 5.1 13 Sur 28 Sudoeste 0 912.3 -1 86
2020-01-18 11:00:00 4.5 10 Sudoeste 28 Sudoeste 0 913.1 -0.7 91
2020-01-18 10:00:00 4 14 Sudoeste 30 Sudoeste 0 913 -0.3 97
2020-01-18 09:00:00 2.8 7 Sudoeste 14 Sudoeste 0 913.3 -0.6 98
2020-01-18 08:00:00 2.1 4 Sur 15 Sur 0 913.8 -0.6 98
2020-01-18 07:00:00 0.4 3 Nordeste 7 Norte 0 913.3 -1.2 96
2020-01-18 06:00:00 -0.1 0 Calma 9 Norte 0 913.9 -0.3 95
2020-01-18 05:00:00 -1.2 2 Este 13 Sudoeste 0 914.4 0.1 96
2020-01-18 04:00:00 -3.1 5 Sudoeste 9 Sudoeste 0 914.5 -0.9 96
2020-01-18 03:00:00 -2.9 2 Nordeste 8 Nordeste 0 914.2 -1.5 95
2020-01-18 02:00:00 -2.6 4 Nordeste 9 Nordeste 0 914.3 -1.5 95
2020-01-18 01:00:00 -2.1 0 Calma 5 Nordeste 0 915.4 -0.8 94
2020-01-18 00:00:00 -1.6 3 Norte 8 Nordeste 0 915.7 -0.4 94
2020-01-17 23:00:00 -1.6 4 Norte 8 Norte 0 915.8 0 94
2020-01-17 22:00:00 -0.7 3 Norte 8 Norte 0 916.2 0.9 92
2020-01-17 21:00:00 0.4 2 Este 8 Este 0 916.1 1.2 87
2020-01-17 20:00:00 2.4 2 Sur 11 Noroeste 0 915.8 1.2 80
2020-01-17 19:00:00 4.4 3 Sudoeste 9 Noroeste 0 915.3 1.3 73
2020-01-17 18:00:00 7.3 5 Oeste 20 Noroeste 0 914.9 1.4 60
2020-01-17 17:00:00 9.3 6 Noroeste 22 Noroeste 0 914.6 0.9 55
2020-01-17 16:00:00 9.8 8 Sudoeste 31 Oeste 0 914 -0.3 54
2020-01-17 15:00:00 8.5 10 Sudoeste 31 Oeste 0 913.5 -1.4 64
2020-01-17 14:00:00 9.2 10 Sudoeste 27 Sudoeste 0 913.7 -0.9 72
2020-01-17 13:00:00 7.3 14 Sur 23 Sur 0 914.3 0.9 87
2020-01-17 12:00:00 5.5 9 Sudoeste 15 Sur 1 914.9 2.1 92
2020-01-17 11:00:00 5 6 Oeste 22 Sur 0 914.6 2.4 91
2020-01-17 10:00:00 4.8 9 Sudoeste 23 Sudoeste 0 913.4 1.4 91
2020-01-17 09:00:00 4.7 8 Sudoeste 28 Sur 0 912.8 1.3 91
2020-01-17 08:00:00 4.7 18 Sudoeste 30 Sur 0 912.2 1 89
2020-01-17 07:00:00 4.7 8 Sudoeste 26 Sudoeste 0 912 0.6 89
2020-01-17 06:00:00 4.2 8 Sudoeste 13 Sudoeste 0 911.5 0.6 88
2020-01-17 05:00:00 3.8 4 Sudoeste 24 Sudoeste 0 911.2 0.4 89
2020-01-17 04:00:00 4.1 7 Oeste 18 Oeste 0 911.4 -0.1 86
2020-01-17 03:00:00 3.6 3 Norte 10 Sur 0 910.9 -0.2 85
2020-01-17 02:00:00 4.1 3 Norte 26 Sudoeste 0.2 910.8 -0.2 88
2020-01-17 01:00:00 5.2 5 Sudoeste 15 Sudoeste 0 911.5 0.6 76
2020-01-17 00:00:00 4.3 2 Oeste 9 Sudoeste 0 911.1 0.4 81
2020-01-16 23:00:00 1.6 2 Sur 5 Sur 0 911 0.6 93
2020-01-16 22:00:00 2.4 2 Sudeste 9 Sudoeste 0 910.9 0.8 96
2020-01-16 21:00:00 1.6 4 Sudoeste 6 Sudoeste 0 910.7 0.9 94
2020-01-16 20:00:00 3.2 3 Sur 8 Sur 0 910.4 0.5 90
2020-01-16 19:00:00 5.6 5 Sur 19 Sudoeste 0 910.1 0.4 88
2020-01-16 18:00:00 7.8 6 Sudoeste 23 Sudoeste 0 909.8 -0.4 82
2020-01-16 17:00:00 9.6 10 Sudoeste 37 Sudoeste 0 909.9 -1.2 76
2020-01-16 16:00:00 9.8 19 Sur 34 Sur 0 909.7 -1.9 74
2020-01-16 15:00:00 9.3 18 Sudoeste 33 Sudoeste 0 910.2 -1.9 80
2020-01-16 14:00:00 8.1 10 Sudoeste 27 Sudoeste 0 911.1 -1.2 90
2020-01-16 13:00:00 8.1 14 Sur 32 Sudoeste 0 911.6 -0.5 86
2020-01-16 12:00:00 8 14 Sudoeste 26 Sudoeste 0 912.1 0.1 84
2020-01-16 11:00:00 7.3 9 Sudoeste 22 Sur 0 912.3 0.5 87
2020-01-16 10:00:00 6.8 8 Sudoeste 19 Sudoeste 0 912.1 0.5 88
2020-01-16 09:00:00 6.8 10 Sudoeste 23 Sudoeste 0 912 0.5 87
2020-01-16 08:00:00 6.7 8 Sur 19 Sur 0 911.8 0.2 89
2020-01-16 07:00:00 6.2 8 Sur 18 Sur 0 911.6 -0.3 90
2020-01-16 06:00:00 5.7 8 Sudoeste 18 Sudoeste 0 911.5 -0.4 94
2020-01-16 05:00:00 5.3 2 Sudeste 5 Sudeste 0 911.6 -0.4 96
2020-01-16 04:00:00 5.3 2 Sudeste 9 Sudoeste 0 911.9 -0.4 95
2020-01-16 03:00:00 5.2 3 Sur 7 Sudoeste 0 911.9 -0.6 96
2020-01-16 02:00:00 5.1 3 Sudoeste 8 Sur 0 912 -0.3 95
2020-01-16 01:00:00 5.3 3 Sur 10 Oeste 0 912.3 0.3 94
2020-01-16 00:00:00 5.7 5 Sudoeste 12 Oeste 0 912.5 0.6 91
2020-01-15 23:00:00 5.7 4 Sudoeste 12 Sudoeste 0 912.3 0.3 89
2020-01-15 22:00:00 5.6 8 Sudoeste 13 Sudoeste 0 912 0.4 89
2020-01-15 21:00:00 5.5 5 Sudoeste 14 Sudoeste 0 911.9 1 88
2020-01-15 20:00:00 5.5 5 Sudoeste 14 Sudoeste 0 912 1.8 88
2020-01-15 19:00:00 5.7 8 Sudoeste 18 Sudoeste 0 911.6 1.7 85
2020-01-15 18:00:00 6 6 Sudoeste 20 Sudoeste 0 910.9 1.5 82
2020-01-15 17:00:00 6.4 14 Sudoeste 24 Sudoeste 0 910.2 0.6 79
2020-01-15 16:00:00 6.8 15 Sudoeste 29 Sur 0 909.9 0 77
2020-01-15 15:00:00 7.5 14 Sudoeste 31 Sur 0 909.4 -0.8 72
2020-01-15 14:00:00 7.4 19 Sur 32 Sudoeste 0 909.6 -0.2 71
2020-01-15 13:00:00 7.6 13 Sudoeste 32 Sudoeste 0 909.9 1.1 72
2020-01-15 12:00:00 6.1 18 Sudoeste 28 Sur 0 910.2 1.9 80
2020-01-15 11:00:00 5.5 13 Sudoeste 28 Sudoeste 0 909.8 2.1 82
2020-01-15 10:00:00 3.8 9 Sur 18 Sudoeste 0 908.8 1.7 89
2020-01-15 09:00:00 3.4 9 Sur 15 Sur 0 908.3 1.5 89
2020-01-15 08:00:00 3.4 6 Sudoeste 19 Sur 0 907.7 0.6 89
2020-01-15 07:00:00 3.4 9 Sur 18 Sudoeste 0 907.1 0 87
2020-01-15 06:00:00 3.3 4 Sudoeste 13 Sudoeste 0 906.8 -0.3 86
2020-01-15 05:00:00 3.2 9 Sur 18 Sur 0 907.1 0.2 85
2020-01-15 04:00:00 3.7 10 Sudoeste 17 Sur 0 907.1 0 85
2020-01-15 03:00:00 3.2 5 Sudoeste 12 Sudoeste 0 907.1 -0.4 85
2020-01-15 02:00:00 3 4 Sudoeste 15 Oeste 0 906.9 -0.5 87
2020-01-15 01:00:00 1.4 4 Sudoeste 13 Oeste 0 907.1 -0.2 95
2020-01-15 00:00:00 -1.7 3 Norte 7 Norte 0 907.5 0 93
2020-01-14 23:00:00 -1 0 Calma 5 Nordeste 0 907.4 0.1 90
2020-01-14 22:00:00 -1.1 3 Nordeste 11 Norte 0 907.3 0.6 91
2020-01-14 21:00:00 -2.5 2 Nordeste 5 Norte 0 907.5 1.3 91
2020-01-14 20:00:00 -2.6 0 Calma 5 Norte 0 907.3 1.2 87
2020-01-14 19:00:00 -0.2 0 Calma 8 Noroeste 0 906.7 0.5 81
2020-01-14 18:00:00 3.1 4 Oeste 22 Sudoeste 0 906.2 0.1 75
2020-01-14 17:00:00 6.2 9 Sudoeste 22 Sudoeste 0 906.1 -0.6 63
2020-01-14 16:00:00 7.2 10 Sudoeste 32 Sudoeste 0 906.2 -1.2 58
2020-01-14 15:00:00 7.6 7 Sudoeste 20 Oeste 0 906.1 -2 61
2020-01-14 14:00:00 5.9 6 Oeste 21 Sudoeste 0 906.7 -1.5 68
2020-01-14 13:00:00 3.6 7 Sudoeste 19 Sur 0 907.4 -0.3 80
2020-01-14 12:00:00 1.5 8 Sudoeste 19 Sudoeste 0 908.1 0.7 88
2020-01-14 11:00:00 0.1 6 Sudoeste 16 Sudoeste 0 908.2 0.8 96
2020-01-14 10:00:00 -3.1 3 Sudoeste 5 Sur 0 907.7 0.5 95
2020-01-14 09:00:00 -4.7 0 Calma 4 Nordeste 0 907.4 0.5 95
2020-01-14 08:00:00 -6.2 3 Nordeste 5 Norte 0 907.4 0.4 95
2020-01-14 07:00:00 -7.8 2 Nordeste 8 Norte 0 907.2 0.1 94
2020-01-14 06:00:00 -8 2 Sudoeste 9 Norte 0 906.9 -0.6 93
2020-01-14 05:00:00 -7.6 2 Nordeste 10 Norte 0 907 -0.6 94
2020-01-14 04:00:00 -7.1 3 Sudoeste 10 Sudoeste 0 907.1 -1.1 94
2020-01-14 03:00:00 -6.8 3 Nordeste 9 Nordeste 0 907.5 -0.9 93
2020-01-14 02:00:00 -5.9 5 Nordeste 10 Norte 0 907.6 -0.8 94
2020-01-14 01:00:00 -5.3 2 Este 9 Norte 0 908.2 0.2 93
2020-01-14 00:00:00 -5.2 3 Sur 6 Sur 0 908.4 0.5 91
2020-01-13 23:00:00 -3.9 0 Calma 8 Sudoeste 0 908.4 0.3 92
2020-01-13 22:00:00 -2.5 8 Sur 12 Sudoeste 0 908 -0.3 90
2020-01-13 21:00:00 -2 5 Sudoeste 10 Sur 0 907.9 -0.2 88
2020-01-13 20:00:00 -1.9 5 Sudoeste 10 Sudoeste 0 908.1 -0.2 84
2020-01-13 19:00:00 0.3 3 Sur 8 Sur 0 908.3 0.2 73
2020-01-13 18:00:00 4.1 4 Sur 14 Sur 0 908.1 -0.3 62
2020-01-13 17:00:00 6.7 6 Sudoeste 25 Sudoeste 0 908.3 -0.4 52
2020-01-13 16:00:00 7.6 8 Sudoeste 23 Sudoeste 0 908.1 -1.5 47
2020-01-13 15:00:00 8 13 Sudoeste 26 Sudoeste 0 908.4 -1.7 43
2020-01-13 14:00:00 7.9 12 Sudoeste 26 Sudoeste 0 908.7 -2.1 44
2020-01-13 13:00:00 6.6 14 Sudoeste 26 Sudoeste 0 909.6 -0.9 53
2020-01-13 12:00:00 5.1 8 Sudoeste 15 Sudoeste 0 910.1 -0.3 58
2020-01-13 11:00:00 -1.1 2 Sur 4 Sur 0 910.8 0.3 89
2020-01-13 10:00:00 -5.2 0 Calma 5 Nordeste 0 910.5 -0.1 93
2020-01-13 09:00:00 -7.7 3 Nordeste 7 Norte 0 910.4 -0.4 94
2020-01-13 08:00:00 -8.2 3 Nordeste 6 Nordeste 0 910.5 -0.7 93
2020-01-13 07:00:00 -7.6 5 Norte 8 Nordeste 0 910.6 -1.2 93
2020-01-13 06:00:00 -7.4 4 Nordeste 8 Nordeste 0 910.8 -1.5 92
2020-01-13 05:00:00 -7.8 3 Nordeste 8 Nordeste 0 911.2 -1.5 93
2020-01-13 04:00:00 -8 5 Norte 8 Nordeste 0 911.8 -1.3 92
2020-01-13 03:00:00 -7.5 7 Norte 10 Norte 0 912.3 -1.4 92
2020-01-13 02:00:00 -7.3 3 Nordeste 8 Norte 0 912.7 -0.8 91
2020-01-13 01:00:00 -6.5 2 Norte 6 Nordeste 0 913.1 -0.9 90
2020-01-13 00:00:00 -5.6 4 Nordeste 8 Nordeste 0 913.7 -0.3 90
2020-01-12 23:00:00 -4.7 5 Norte 10 Nordeste 0 913.5 -0.5 88
2020-01-12 22:00:00 -3.7 6 Nordeste 9 Norte 0 914 0.5 88
2020-01-12 21:00:00 -2.8 5 Nordeste 8 Nordeste 0 914 1.2 83
2020-01-12 20:00:00 -1.1 5 Nordeste 9 Nordeste 0 914 1.6 77
2020-01-12 19:00:00 1 3 Nordeste 7 Este 0 913.5 1.1 66
2020-01-12 18:00:00 5.2 2 Nordeste 5 Este 0 912.8 0.2 50
2020-01-12 17:00:00 11.4 3 Noroeste 12 Norte 0 912.4 -0.7 32
2020-01-12 16:00:00 12.1 4 Norte 13 Norte 0 912.4 -1.6 27
2020-01-12 15:00:00 11.6 6 Norte 14 Noroeste 0 912.6 -2.5 26
2020-01-12 14:00:00 11.6 5 Sudoeste 15 Sudoeste 0 913.1 -2.1 28
2020-01-12 13:00:00 8.6 11 Sur 17 Sur 0 914 -1.1 33
2020-01-12 12:00:00 4.8 10 Sudoeste 14 Sur 0 915.1 0.3 43
2020-01-12 11:00:00 -1 3 Sur 5 Sur 0 915.2 0.5 66
2020-01-12 10:00:00 -5.9 2 Este 7 Nordeste 0 915.1 0.4 85
2020-01-12 09:00:00 -10.5 4 Nordeste 8 Norte 0 914.8 0.2 90
2020-01-12 08:00:00 -10.7 4 Norte 8 Norte 0 914.7 0.1 90
2020-01-12 07:00:00 -10.6 4 Nordeste 8 Norte 0 914.7 0 90
2020-01-12 06:00:00 -10 4 Nordeste 8 Norte 0 914.6 -0.2 91
2020-01-12 05:00:00 -9.7 5 Nordeste 8 Norte 0 914.6 -0.1 89
2020-01-12 04:00:00 -9.3 3 Nordeste 9 Nordeste 0 914.7 -0.2 90
2020-01-12 03:00:00 -8.7 4 Norte 6 Norte 0 914.8 -0.3 90
2020-01-12 02:00:00 -7.9 0 Calma 8 Nordeste 0 914.7 -0.7 88
2020-01-12 01:00:00 -7.3 6 Nordeste 9 Nordeste 0 914.9 -0.5 89
2020-01-12 00:00:00 -7.3 4 Nordeste 7 Norte 0 915.1 -0.2 87
2020-01-11 23:00:00 -6.3 5 Norte 7 Norte 0 915.4 0.7 86
2020-01-11 22:00:00 -5.6 4 Nordeste 8 Nordeste 0 915.4 1.1 83
2020-01-11 21:00:00 -4.2 3 Nordeste 7 Nordeste 0 915.3 1.7 78
2020-01-11 20:00:00 -2.4 4 Nordeste 8 Nordeste 0 914.7 1.2 73
2020-01-11 19:00:00 -0.1 2 Nordeste 8 Este 0 914.3 0.7 64
2020-01-11 18:00:00 4.6 0 Calma 9 Oeste 0 913.6 -0.1 45
2020-01-11 17:00:00 10.5 4 Oeste 14 Oeste 0 913.5 -0.6 24
2020-01-11 16:00:00 11.3 6 Sudoeste 15 Sudoeste 0 913.6 -1.4 18
2020-01-11 15:00:00 10.2 3 Este 11 Sudeste 0 913.7 -2.3 24
2020-01-11 14:00:00 9.5 4 Este 13 Este 0 914.1 -2.2 31
2020-01-11 13:00:00 8.2 4 Este 13 Nordeste 0 915 -0.9 39
2020-01-11 12:00:00 6.4 5 Este 12 Este 0 916 0.3 51
2020-01-11 11:00:00 3.2 6 Este 12 Este 0 916.3 0.8 75
2020-01-11 10:00:00 -1.1 5 Nordeste 9 Nordeste 0 915.9 0.8 94
2020-01-11 09:00:00 -5.9 4 Norte 8 Nordeste 0 915.7 1 96
2020-01-11 08:00:00 -7.1 3 Nordeste 9 Norte 0 915.5 0.5 94
2020-01-11 07:00:00 -6.6 2 Nordeste 5 Norte 0 915.1 -0.1 95
2020-01-11 06:00:00 -5.9 0 Calma 7 Norte 0 914.7 -0.4 94
2020-01-11 05:00:00 -4.9 2 Nordeste 14 Este 0 915 0.3 94
2020-01-11 04:00:00 -4.6 3 Nordeste 6 Norte 0 915.2 0.5 94
2020-01-11 03:00:00 -3.8 3 Este 8 Sudoeste 0 915.1 0.1 94
2020-01-11 02:00:00 -2.8 5 Sudoeste 8 Sudoeste 0 914.7 -0.1 94
2020-01-11 01:00:00 -2.4 2 Oeste 12 Este 0 914.7 -0.2 91
2020-01-11 00:00:00 -2 3 Nordeste 11 Este 0 915 0.5 90
2020-01-10 23:00:00 -1.1 3 Nordeste 13 Norte 0 914.8 0.6 89
2020-01-10 22:00:00 -0.2 0 Calma 7 Norte 0 914.9 1.1 86
2020-01-10 21:00:00 -1 2 Este 5 Este 0 914.5 1.3 85
2020-01-10 20:00:00 1.1 0 Calma 13 Nordeste 0 914.2 1.5 76
2020-01-10 19:00:00 3.9 10 Nordeste 21 Nordeste 0 913.8 1.7 69
2020-01-10 18:00:00 5.4 7 Nordeste 33 Norte 0 913.2 1.1 63
2020-01-10 17:00:00 7.6 12 Norte 37 Norte 0 912.7 0.4 50
2020-01-10 16:00:00 7.6 10 Nordeste 27 Nordeste 0 912.1 -0.4 52
2020-01-10 15:00:00 8.2 14 Nordeste 29 Nordeste 0 912.1 -0.9 47
2020-01-10 14:00:00 7 12 Norte 31 Nordeste 0 912.3 -0.3 52
2020-01-10 13:00:00 6.7 14 Norte 33 Norte 0 912.5 -0.1 54
2020-01-10 12:00:00 6 15 Norte 32 Nordeste 0 913 0.6 55
2020-01-10 11:00:00 4 15 Norte 28 Norte 0 912.6 0.8 71
2020-01-10 10:00:00 1.6 11 Noroeste 33 Noroeste 0 912.6 1.3 86
2020-01-10 09:00:00 0.4 12 Noroeste 26 Noroeste 0 912.4 1.7 93
2020-01-10 08:00:00 0 4 Norte 13 Nordeste 0 911.8 1.5 91
2020-01-10 07:00:00 1.1 5 Norte 28 Noroeste 0 911.3 0.8 86
2020-01-10 06:00:00 1.5 14 Noroeste 28 Noroeste 0 910.7 0.1 86
2020-01-10 05:00:00 2.3 14 Noroeste 28 Noroeste 0 910.3 0.4 84
2020-01-10 04:00:00 3.9 3 Norte 19 Noroeste 0 910.5 0.5 76
2020-01-10 03:00:00 5.5 5 Noroeste 27 Norte 0 910.6 0.6 75
2020-01-10 02:00:00 6.3 6 Noroeste 20 Noroeste 0 909.9 0.1 78
2020-01-10 01:00:00 4.1 4 Oeste 16 Noroeste 0 910 0.4 84
2020-01-10 00:00:00 4.5 2 Nordeste 7 Sudeste 0 910 -0.1 83
2020-01-09 23:00:00 4 4 Nordeste 11 Norte 0 909.8 -0.5 83
2020-01-09 22:00:00 4.2 3 Oeste 8 Sudoeste 0 909.6 -0.4 81
2020-01-09 21:00:00 5.7 4 Sudoeste 8 Sudoeste 0 910.1 0.9 78
2020-01-09 20:00:00 5.3 0 Calma 9 Sudoeste 0 910.3 1.2 76
2020-01-09 19:00:00 4.5 4 Sudoeste 9 Sudoeste 0 910 0.7 73
2020-01-09 18:00:00 8.1 6 Sudoeste 15 Sudoeste 0 909.2 -0.5 61
2020-01-09 17:00:00 11.7 8 Sudoeste 21 Sudoeste 0 909.1 -0.8 50
2020-01-09 16:00:00 12.6 9 Sudoeste 23 Sudoeste 0 909.3 -1.4 47
2020-01-09 15:00:00 12.8 9 Sudoeste 23 Sudoeste 0 909.7 -2.1 46
2020-01-09 14:00:00 12.2 13 Sudoeste 22 Sudoeste 0 909.9 -2.4 51
2020-01-09 13:00:00 11.4 9 Sudoeste 19 Sudoeste 0 910.7 -1.3 53
2020-01-09 12:00:00 9.1 8 Sudoeste 18 Sudoeste 0 911.8 -0.4 63
2020-01-09 11:00:00 4.1 6 Sur 10 Sur 0 912.3 0.2 89
2020-01-09 10:00:00 -1.3 4 Norte 8 Norte 0 912 -0.1 95
2020-01-09 09:00:00 -4.6 0 Calma 5 Norte 0 912.2 0.1 95
2020-01-09 08:00:00 -4.8 0 Calma 5 Nordeste 0 912.1 -0.4 94
2020-01-09 07:00:00 -4.4 3 Nordeste 5 Nordeste 0 912.1 -0.9 95
2020-01-09 06:00:00 -4.1 3 Norte 6 Norte 0 912.1 -1.2 95
2020-01-09 05:00:00 -3.9 3 Nordeste 8 Norte 0 912.5 -0.8 95
2020-01-09 04:00:00 -3.4 4 Nordeste 9 Norte 0 913 -0.6 95
2020-01-09 03:00:00 -3.3 2 Nordeste 5 Norte 0 913.3 -0.4 93
2020-01-09 02:00:00 -2.8 2 Nordeste 5 Nordeste 0 913.3 -0.6 93
2020-01-09 01:00:00 -2.2 4 Nordeste 7 Nordeste 0 913.6 -0.4 93
2020-01-09 00:00:00 -1.7 3 Nordeste 7 Norte 0 913.7 -0.2 92
2020-01-08 23:00:00 -1 2 Nordeste 5 Nordeste 0 913.9 0 89
2020-01-08 22:00:00 0.3 4 Nordeste 10 Norte 0 914 0.4 89
2020-01-08 21:00:00 1.3 3 Nordeste 9 Nordeste 0 913.9 0.7 86
2020-01-08 20:00:00 3.2 6 Nordeste 9 Nordeste 0 913.9 1.1 78
2020-01-08 19:00:00 5.6 5 Nordeste 10 Nordeste 0 913.6 0.8 70
2020-01-08 18:00:00 9.5 3 Nordeste 13 Nordeste 0 913.2 0.5 56
2020-01-08 17:00:00 13.1 9 Nordeste 17 Nordeste 0 912.8 -0.3 45
2020-01-08 16:00:00 14.4 7 Nordeste 17 Norte 0 912.8 -1 45
2020-01-08 15:00:00 14.3 8 Norte 19 Nordeste 0 912.7 -1.6 48
2020-01-08 14:00:00 14 9 Nordeste 19 Nordeste 0 913.1 -1.6 49
2020-01-08 13:00:00 13.7 7 Nordeste 19 Nordeste 0 913.8 -0.9 41
2020-01-08 12:00:00 13 10 Este 20 Nordeste 0 914.3 0.1 36
2020-01-08 11:00:00 7.7 2 Sudeste 7 Sudoeste 0 914.7 0.8 51
2020-01-08 10:00:00 0.8 2 Sudoeste 8 Nordeste 0 914.7 1 69
2020-01-08 09:00:00 -2.4 0 Calma 8 Norte 0 914.2 0.4 77
2020-01-08 08:00:00 -2.4 4 Nordeste 7 Norte 0 913.9 0.1 73
2020-01-08 07:00:00 -1.4 5 Nordeste 7 Nordeste 0 913.7 -0.6 65
2020-01-08 06:00:00 0.2 4 Nordeste 7 Norte 0 913.8 -0.7 56
2020-01-08 05:00:00 0.9 3 Sudoeste 9 Nordeste 0 913.8 -0.8 53
2020-01-08 04:00:00 -1.6 3 Norte 8 Noroeste 0 914.3 -0.7 70
2020-01-08 03:00:00 -0.2 5 Norte 9 Nordeste 0 914.5 -0.7 63
2020-01-08 02:00:00 -0.2 4 Norte 9 Nordeste 0 914.6 -0.7 68
2020-01-08 01:00:00 -0.1 7 Norte 10 Nordeste 0 915 -0.3 65
2020-01-08 00:00:00 -2.1 6 Nordeste 9 Nordeste 0 915.2 0.1 76
2020-01-07 23:00:00 -2.2 4 Nordeste 8 Norte 0 915.3 0.1 77
2020-01-07 22:00:00 -1 5 Norte 10 Nordeste 0 915.3 0.4 71
2020-01-07 21:00:00 -0.5 2 Nordeste 7 Norte 0 915.1 0.5 71
2020-01-07 20:00:00 2.4 3 Nordeste 7 Nordeste 0 915.2 0.8 60
2020-01-07 19:00:00 5 3 Nordeste 11 Este 0 914.9 0.7 51
2020-01-07 18:00:00 8.2 4 Este 10 Norte 0 914.6 0.2 39
2020-01-07 17:00:00 15 6 Noroeste 19 Noroeste 0 914.4 -0.7 20
2020-01-07 16:00:00 17.2 8 Noroeste 19 Noroeste 0 914.2 -1.6 20
2020-01-07 15:00:00 16 8 Noroeste 21 Noroeste 0 914.4 -1.9 21
2020-01-07 14:00:00 15.1 6 Norte 21 Norte 0 915.1 -1.7 17
2020-01-07 13:00:00 14 7 Norte 21 Noroeste 0 915.8 -0.8 20
2020-01-07 12:00:00 10.7 3 Sudeste 8 Sudoeste 0 916.3 0.1 37
2020-01-07 11:00:00 3.4 4 Nordeste 6 Norte 0 916.8 1 61
2020-01-07 10:00:00 -2.6 2 Nordeste 6 Nordeste 0 916.6 1.2 83
2020-01-07 09:00:00 -6.5 4 Nordeste 8 Nordeste 0 916.2 1 90
2020-01-07 08:00:00 -6.6 2 Nordeste 6 Nordeste 0 915.8 0.3 90
2020-01-07 07:00:00 -6.2 0 Calma 8 Nordeste 0 915.4 -0.1 91
2020-01-07 06:00:00 -5.3 4 Nordeste 10 Norte 0 915.2 -0.7 88
2020-01-07 05:00:00 -4.6 5 Nordeste 10 Norte 0 915.5 -0.1 86
2020-01-07 04:00:00 -4.7 6 Nordeste 10 Norte 0 915.5 0 90
2020-01-07 03:00:00 -4.4 3 Nordeste 9 Norte 0 915.9 0.2 89
2020-01-07 02:00:00 -4.3 8 Norte 10 Norte 0 915.6 0.2 89
2020-01-07 01:00:00 -4.4 2 Norte 10 Nordeste 0 915.5 0.2 91
2020-01-07 00:00:00 -3.7 6 Nordeste 8 Norte 0 915.7 0.7 87
2020-01-06 23:00:00 -3.1 3 Nordeste 7 Norte 0 915.4 0.6 86
2020-01-06 22:00:00 -2.3 3 Nordeste 8 Norte 0 915.3 1.6 83
2020-01-06 21:00:00 -1.2 4 Nordeste 8 Norte 0 915 1.9 81
2020-01-06 20:00:00 0.3 5 Nordeste 10 Norte 0 914.8 2.2 75
2020-01-06 19:00:00 2.8 2 Nordeste 5 Nordeste 0 913.7 1.2 65
2020-01-06 18:00:00 7.7 3 Sudoeste 10 Sudoeste 0 913.1 0.8 48
2020-01-06 17:00:00 13.9 5 Sudoeste 16 Sur 0 912.6 -0.2 29
2020-01-06 16:00:00 14.9 7 Sudoeste 16 Sudoeste 0 912.5 -0.8 27
2020-01-06 15:00:00 14.8 8 Sur 16 Sur 0 912.3 -1.8 28
2020-01-06 14:00:00 14.6 7 Sudoeste 18 Sudoeste 0 912.8 -1.5 30
2020-01-06 13:00:00 12.6 11 Sur 18 Sudoeste 0 913.3 -1.1 33
2020-01-06 12:00:00 9.2 5 Sur 8 Sur 0 914.1 -0.1 54
2020-01-06 11:00:00 2.6 3 Nordeste 5 Nordeste 0 914.3 0.9 76
2020-01-06 10:00:00 -2.6 4 Nordeste 9 Nordeste 0 914.4 1.3 92